STN weather

London Stansted Airport
London, England, United Kingdom

Public forecast

Using degrees Celsius for public forecast. Weather courtesy of forecast.io.

Current aviation weather report (METAR) for London Stansted Airport

Retrieved 2020/01/19 09:20 UTC (22 minutes ago):

EGSS 190920Z AUTO 33006KT 9999 NCD 01/M01 Q1043

Aviation forecast (TAF) for London Stansted Airport

Retrieved 2020/01/19 06:00 UTC (4 hours ago):

TAF EGSS 190504Z 1906/2012 33004KT CAVOK TEMPO 1920/2011 5000 MIFG BR PROB30 2003/2009 0700 BCFG